createdAt,value
2023-03-06T00:05:33.275Z,0
2023-03-06T00:20:33.239Z,0
2023-03-06T00:35:33.204Z,0
2023-03-06T00:50:33.195Z,0
2023-03-06T01:05:33.137Z,0
2023-03-06T01:20:33.173Z,0
2023-03-06T01:35:33.176Z,0
2023-03-06T01:50:33.163Z,0
2023-03-06T02:05:33.147Z,0
2023-03-06T02:20:33.152Z,0
2023-03-06T02:35:33.151Z,0
2023-03-06T02:50:33.117Z,0
2023-03-06T03:05:33.088Z,0
2023-03-06T03:20:33.103Z,0
2023-03-06T03:35:33.107Z,0
2023-03-06T03:50:33.084Z,0
2023-03-06T04:05:33.073Z,0
2023-03-06T04:20:33.077Z,0
2023-03-06T04:35:33.065Z,0
2023-03-06T04:50:33.082Z,0
2023-03-06T05:05:33.040Z,0
2023-03-06T05:20:33.061Z,0
2023-03-06T05:35:33.117Z,0
2023-03-06T05:50:33.050Z,0
2023-03-06T06:05:32.999Z,0
2023-03-06T06:20:33.045Z,0
2023-03-06T06:35:33.031Z,0
2023-03-06T06:50:33.046Z,0
2023-03-06T07:05:33.017Z,0
2023-03-06T07:20:33.033Z,1
2023-03-06T07:35:33.015Z,0
2023-03-06T07:50:33.036Z,0
2023-03-06T08:05:32.972Z,1
2023-03-06T08:20:32.972Z,0
2023-03-06T08:35:32.934Z,1
2023-03-06T08:50:32.881Z,0
2023-03-06T09:05:32.854Z,0
2023-03-06T09:20:32.882Z,0
2023-03-06T09:35:32.847Z,0
2023-03-06T09:50:32.851Z,0
2023-03-06T10:05:32.780Z,0
2023-03-06T10:20:32.801Z,0
2023-03-06T10:35:32.802Z,0
2023-03-06T10:50:32.766Z,0
2023-03-06T11:05:32.695Z,0
2023-03-06T11:20:48.595Z,0
2023-03-06T11:35:32.681Z,0
2023-03-06T11:50:32.748Z,0
2023-03-06T12:05:32.699Z,0
2023-03-06T12:20:32.632Z,0
2023-03-06T12:35:32.630Z,0
2023-03-06T12:50:32.592Z,0
2023-03-06T13:05:32.523Z,0
2023-03-06T13:20:34.654Z,6
2023-03-06T13:35:32.591Z,153
2023-03-06T13:50:32.490Z,157
2023-03-06T14:05:34.083Z,56
2023-03-06T14:20:32.463Z,176
2023-03-06T14:35:32.468Z,228
2023-03-06T14:50:32.436Z,225
2023-03-06T15:05:32.361Z,216
2023-03-06T15:20:32.396Z,107
2023-03-06T15:35:32.377Z,216
2023-03-06T15:50:32.333Z,40
2023-03-06T16:05:32.281Z,195
2023-03-06T16:20:32.306Z,123
2023-03-06T16:35:32.299Z,17
2023-03-06T16:50:32.269Z,195
2023-03-06T17:05:32.207Z,58
2023-03-06T17:20:32.240Z,57
2023-03-06T17:35:32.227Z,93
2023-03-06T17:50:32.187Z,0
2023-03-06T18:05:32.121Z,0
2023-03-06T18:20:32.139Z,0
2023-03-06T18:35:32.126Z,0
2023-03-06T18:50:32.124Z,0
2023-03-06T19:05:32.067Z,0
2023-03-06T19:20:32.068Z,0
2023-03-06T19:35:32.043Z,0
2023-03-06T19:50:32.057Z,0
2023-03-06T20:05:32.005Z,0
2023-03-06T20:20:32.014Z,0
2023-03-06T20:35:32.176Z,0
2023-03-06T20:50:31.974Z,0
2023-03-06T21:05:31.938Z,3
2023-03-06T21:20:31.967Z,13
2023-03-06T21:35:31.959Z,14
2023-03-06T21:50:31.922Z,0
2023-03-06T22:05:31.900Z,0
2023-03-06T22:20:31.899Z,0
2023-03-06T22:35:31.959Z,0
2023-03-06T22:50:31.865Z,0
2023-03-06T23:05:31.834Z,0
2023-03-06T23:20:31.860Z,0
2023-03-06T23:35:31.890Z,0
2023-03-06T23:50:31.809Z,0
